createdAt,value
2023-02-25T00:00:31.131Z,57.57
2023-02-25T00:02:58.913Z,58.60
2023-02-25T00:05:26.169Z,57.55
2023-02-25T00:07:54.068Z,58.40
2023-02-25T00:10:21.092Z,57.37
2023-02-25T00:12:48.142Z,56.95
2023-02-25T00:15:15.152Z,55.72
2023-02-25T00:17:42.269Z,57.58
2023-02-25T00:20:11.383Z,57.95
2023-02-25T00:22:38.730Z,58.39
2023-02-25T00:25:06.389Z,59.82
2023-02-25T00:27:33.415Z,59.89
2023-02-25T00:30:02.001Z,61.29
2023-02-25T00:32:30.405Z,60.80
2023-02-25T00:34:57.717Z,60.89
2023-02-25T00:37:24.710Z,60.98
2023-02-25T00:39:51.703Z,60.54
2023-02-25T00:42:19.761Z,62.21
2023-02-25T00:44:47.850Z,61.06
2023-02-25T00:47:15.637Z,60.96
2023-02-25T00:49:42.935Z,60.58
2023-02-25T00:52:09.921Z,61.55
2023-02-25T00:54:37.320Z,61.42
2023-02-25T00:57:04.415Z,60.65
2023-02-25T00:59:31.745Z,63.73
2023-02-25T01:01:58.976Z,63.89
2023-02-25T01:04:26.157Z,65.46
2023-02-25T01:06:54.726Z,63.03
2023-02-25T01:09:21.653Z,64.30
2023-02-25T01:11:49.152Z,65.04
2023-02-25T01:14:21.002Z,63.75
2023-02-25T01:16:48.645Z,62.77
2023-02-25T01:19:21.344Z,63.68
2023-02-25T01:21:49.638Z,62.46
2023-02-25T01:24:18.638Z,63.38
2023-02-25T01:26:45.992Z,62.35
2023-02-25T01:29:17.415Z,63.38
2023-02-25T01:31:44.817Z,63.37
2023-02-25T01:34:16.717Z,65.66
2023-02-25T01:36:43.830Z,66.62
2023-02-25T01:39:11.189Z,62.83
2023-02-25T01:41:38.295Z,62.54
2023-02-25T01:44:14.327Z,62.48
2023-02-25T01:46:42.835Z,63.35
2023-02-25T01:49:15.796Z,61.88
2023-02-25T01:51:43.819Z,63.92
2023-02-25T01:54:10.959Z,62.79
2023-02-25T01:56:39.096Z,61.29
2023-02-25T01:59:07.185Z,62.13
2023-02-25T02:01:35.590Z,63.28
2023-02-25T02:04:04.539Z,65.98
2023-02-25T02:06:49.988Z,63.61
2023-02-25T02:09:22.054Z,62.81
2023-02-25T02:11:49.133Z,64.77
2023-02-25T02:14:23.091Z,64.85
2023-02-25T02:17:05.612Z,63.22
2023-02-25T02:19:48.222Z,65.57
2023-02-25T02:22:24.622Z,65.41
2023-02-25T02:24:58.977Z,65.13
2023-02-25T02:28:03.572Z,63.66
2023-02-25T02:31:04.746Z,62.83
2023-02-25T02:33:45.060Z,62.97
2023-02-25T02:36:37.765Z,64.30
2023-02-25T02:39:04.673Z,63.87
2023-02-25T02:41:50.737Z,63.98
2023-02-25T02:44:22.125Z,64.42
2023-02-25T02:46:54.733Z,63.34
2023-02-25T02:49:27.180Z,62.18
2023-02-25T02:52:03.279Z,63.78
2023-02-25T02:54:36.175Z,63.32
2023-02-25T02:57:03.415Z,64.86
2023-02-25T02:59:33.140Z,63.33
2023-02-25T03:02:03.924Z,61.69
2023-02-25T03:04:31.955Z,63.03
2023-02-25T03:07:02.159Z,63.17
2023-02-25T03:09:35.967Z,62.26
2023-02-25T03:12:03.058Z,61.66
2023-02-25T03:14:33.281Z,60.91
2023-02-25T03:17:12.402Z,62.13
2023-02-25T03:19:51.327Z,66.01
2023-02-25T03:22:20.470Z,64.96
2023-02-25T03:24:51.067Z,66.84
2023-02-25T03:27:27.295Z,67.27
2023-02-25T03:30:05.491Z,68.13
2023-02-25T03:32:33.668Z,67.63
2023-02-25T03:35:01.360Z,65.52
2023-02-25T03:37:29.479Z,65.91
2023-02-25T03:39:58.060Z,67.02
2023-02-25T03:42:28.856Z,66.66
2023-02-25T03:44:58.022Z,63.77
2023-02-25T03:47:25.169Z,64.76
2023-02-25T03:50:14.529Z,66.41
2023-02-25T03:52:44.020Z,66.21
2023-02-25T03:55:25.334Z,67.26
2023-02-25T03:57:52.330Z,65.33
2023-02-25T04:00:30.936Z,63.94
2023-02-25T04:02:58.031Z,63.84
2023-02-25T04:05:28.247Z,62.01
2023-02-25T04:07:56.383Z,59.85
2023-02-25T04:10:24.718Z,57.83
2023-02-25T04:12:52.038Z,58.42
2023-02-25T04:15:19.468Z,59.24
2023-02-25T04:17:47.269Z,57.64
2023-02-25T04:20:16.254Z,57.22
2023-02-25T04:22:43.600Z,56.19
2023-02-25T04:25:10.865Z,55.57
2023-02-25T04:27:37.893Z,56.24
2023-02-25T04:30:05.635Z,56.10
2023-02-25T04:32:32.709Z,56.49
2023-02-25T04:35:03.446Z,58.96
2023-02-25T04:37:31.101Z,56.96
2023-02-25T04:39:58.263Z,59.40
2023-02-25T04:42:25.336Z,58.97
2023-02-25T04:44:52.497Z,57.85
2023-02-25T04:47:19.482Z,59.21
2023-02-25T04:49:46.497Z,58.29
2023-02-25T04:52:16.440Z,58.73
2023-02-25T04:54:43.556Z,56.35
2023-02-25T04:57:10.592Z,56.93
2023-02-25T04:59:37.943Z,55.57
2023-02-25T05:02:05.745Z,58.47
2023-02-25T05:04:33.026Z,58.72
2023-02-25T05:07:00.051Z,58.57
2023-02-25T05:09:26.982Z,58.09
2023-02-25T05:11:53.975Z,57.71
2023-02-25T05:14:20.936Z,57.35
2023-02-25T05:16:47.857Z,55.47
2023-02-25T05:19:18.897Z,55.66
2023-02-25T05:21:45.829Z,57.39
2023-02-25T05:24:12.801Z,56.54
2023-02-25T05:26:39.997Z,57.05
2023-02-25T05:29:06.931Z,58.07
2023-02-25T05:31:34.053Z,56.04
2023-02-25T05:34:01.119Z,56.11
2023-02-25T05:36:28.768Z,56.89
2023-02-25T05:38:57.148Z,56.77
2023-02-25T05:41:24.115Z,57.21
2023-02-25T05:43:51.208Z,55.89
2023-02-25T05:46:18.264Z,55.63
2023-02-25T05:48:48.964Z,58.28
2023-02-25T05:51:18.324Z,58.47
2023-02-25T05:53:45.486Z,59.65
2023-02-25T05:56:13.693Z,59.02
2023-02-25T05:58:40.876Z,57.27
2023-02-25T06:01:13.587Z,57.92
2023-02-25T06:03:41.395Z,61.33
2023-02-25T06:06:08.519Z,61.86
2023-02-25T06:08:35.604Z,61.67
2023-02-25T06:11:02.966Z,61.50
2023-02-25T06:13:29.934Z,63.06
2023-02-25T06:15:59.328Z,65.87
2023-02-25T06:18:26.343Z,64.74
2023-02-25T06:20:55.083Z,62.74
2023-02-25T06:23:22.008Z,61.63
2023-02-25T06:25:48.945Z,60.98
2023-02-25T06:28:15.945Z,60.82
2023-02-25T06:30:43.084Z,61.21
2023-02-25T06:33:10.020Z,61.80
2023-02-25T06:35:37.140Z,60.60
2023-02-25T06:38:04.211Z,59.74
2023-02-25T06:40:33.594Z,60.54
2023-02-25T06:43:00.700Z,61.05
2023-02-25T06:45:27.641Z,60.68
2023-02-25T06:47:54.608Z,61.35
2023-02-25T06:50:21.497Z,59.84
2023-02-25T06:52:48.442Z,59.49
2023-02-25T06:55:15.555Z,60.60
2023-02-25T06:57:42.531Z,57.56
2023-02-25T07:00:10.080Z,56.50
2023-02-25T07:02:37.239Z,56.25
2023-02-25T07:05:05.610Z,56.65
2023-02-25T07:07:32.713Z,57.21
2023-02-25T07:09:59.660Z,56.00
2023-02-25T07:12:26.584Z,58.59
2023-02-25T07:14:53.550Z,57.58
2023-02-25T07:17:20.534Z,56.32
2023-02-25T07:19:47.639Z,56.10
2023-02-25T07:22:15.864Z,56.07
2023-02-25T07:24:43.581Z,59.51
2023-02-25T07:27:10.776Z,59.61
2023-02-25T07:29:37.798Z,59.02
2023-02-25T07:32:05.254Z,58.79
2023-02-25T07:34:32.558Z,59.70
2023-02-25T07:36:59.531Z,60.67
2023-02-25T07:39:26.509Z,61.15
2023-02-25T07:41:53.763Z,58.61
2023-02-25T07:44:20.800Z,61.14
2023-02-25T07:46:47.752Z,59.48
2023-02-25T07:49:14.731Z,57.93
2023-02-25T07:51:41.668Z,59.30
2023-02-25T07:54:09.152Z,57.94
2023-02-25T07:56:36.127Z,59.66
2023-02-25T07:59:03.140Z,59.63
2023-02-25T08:01:31.845Z,58.35
2023-02-25T08:04:00.049Z,56.30
2023-02-25T08:06:27.559Z,57.33
2023-02-25T08:08:55.449Z,59.42
2023-02-25T08:11:23.767Z,57.98
2023-02-25T08:13:51.150Z,55.89
2023-02-25T08:16:19.938Z,54.54
2023-02-25T08:18:47.371Z,56.50
2023-02-25T08:21:15.797Z,59.72
2023-02-25T08:23:42.933Z,62.36
2023-02-25T08:26:10.287Z,61.74
2023-02-25T08:28:37.838Z,61.43
2023-02-25T08:31:07.434Z,61.29
2023-02-25T08:33:34.631Z,61.12
2023-02-25T08:36:12.578Z,58.53
2023-02-25T08:38:39.726Z,57.08
2023-02-25T08:41:06.743Z,57.43
2023-02-25T08:43:33.754Z,57.79
2023-02-25T08:46:01.480Z,57.67
2023-02-25T08:48:29.705Z,58.55
2023-02-25T08:50:56.842Z,56.68
2023-02-25T08:53:23.795Z,55.55
2023-02-25T08:55:53.971Z,53.45
2023-02-25T08:58:21.086Z,50.98
2023-02-25T09:00:50.092Z,50.57
2023-02-25T09:03:17.243Z,50.74
2023-02-25T09:05:44.285Z,51.45
2023-02-25T09:08:11.238Z,50.19
2023-02-25T09:10:49.412Z,47.10
2023-02-25T09:13:17.431Z,46.44
2023-02-25T09:15:44.514Z,47.37
2023-02-25T09:18:11.978Z,47.18
2023-02-25T09:20:39.024Z,47.32
2023-02-25T09:23:06.316Z,47.52
2023-02-25T09:25:33.311Z,46.92
2023-02-25T09:28:00.344Z,47.48
2023-02-25T09:30:27.345Z,48.51
2023-02-25T09:32:54.539Z,48.41
2023-02-25T09:35:21.673Z,47.79
2023-02-25T09:37:48.733Z,48.97
2023-02-25T09:40:18.110Z,48.78
2023-02-25T09:43:16.445Z,47.75
2023-02-25T09:45:47.460Z,47.66
2023-02-25T09:48:21.050Z,47.73
2023-02-25T09:50:52.251Z,46.57
2023-02-25T09:53:28.147Z,46.46
2023-02-25T09:55:55.296Z,47.14
2023-02-25T09:58:42.251Z,45.40
2023-02-25T10:01:28.250Z,46.04
2023-02-25T10:04:23.287Z,45.01
2023-02-25T10:06:51.525Z,46.67
2023-02-25T10:09:37.815Z,46.35
2023-02-25T10:12:26.581Z,46.56
2023-02-25T10:15:13.951Z,46.07
2023-02-25T10:17:59.255Z,45.86
2023-02-25T10:21:10.139Z,45.39
2023-02-25T10:23:55.886Z,44.74
2023-02-25T10:26:25.311Z,44.73
2023-02-25T10:28:55.234Z,46.39
2023-02-25T10:31:23.093Z,46.06
2023-02-25T10:33:52.905Z,47.24
2023-02-25T10:36:29.666Z,46.71
2023-02-25T10:38:56.653Z,46.58
2023-02-25T10:41:26.822Z,46.47
2023-02-25T10:43:57.800Z,46.92
2023-02-25T10:46:34.693Z,47.37
2023-02-25T10:49:03.828Z,47.69
2023-02-25T10:51:30.848Z,49.03
2023-02-25T10:53:57.795Z,48.20
2023-02-25T10:56:30.864Z,49.36
2023-02-25T10:59:05.515Z,48.02
2023-02-25T11:01:42.444Z,47.19
2023-02-25T11:04:15.500Z,45.95
2023-02-25T11:06:43.216Z,46.06
2023-02-25T11:09:19.561Z,47.54
2023-02-25T11:11:57.464Z,46.95
2023-02-25T11:14:31.720Z,47.21
2023-02-25T11:17:08.463Z,47.13
2023-02-25T11:19:40.110Z,46.89
2023-02-25T11:22:21.187Z,47.86
2023-02-25T11:25:02.504Z,47.16
2023-02-25T11:27:38.949Z,47.06
2023-02-25T11:30:16.719Z,47.94
2023-02-25T11:32:54.695Z,46.31
2023-02-25T11:35:25.074Z,45.61
2023-02-25T11:37:54.963Z,44.69
2023-02-25T11:40:23.647Z,43.91
2023-02-25T11:43:05.696Z,43.85
2023-02-25T11:45:38.920Z,44.84
2023-02-25T11:48:18.079Z,46.04
2023-02-25T11:51:10.178Z,45.18
2023-02-25T11:54:07.087Z,46.50
2023-02-25T11:56:41.201Z,45.70
2023-02-25T11:59:20.517Z,46.05
2023-02-25T12:01:47.401Z,45.86
2023-02-25T12:04:20.213Z,47.03
2023-02-25T12:06:47.062Z,45.99
2023-02-25T12:09:17.011Z,47.16
2023-02-25T12:11:50.014Z,47.39
2023-02-25T12:14:31.431Z,46.86
2023-02-25T12:17:20.495Z,48.06
2023-02-25T12:20:09.386Z,48.65
2023-02-25T12:22:58.617Z,47.21
2023-02-25T12:25:47.240Z,48.74
2023-02-25T12:28:26.291Z,48.22
2023-02-25T12:31:01.551Z,48.25
2023-02-25T12:33:53.070Z,46.71
2023-02-25T12:36:32.052Z,45.24
2023-02-25T12:39:15.938Z,46.54
2023-02-25T12:42:20.547Z,47.50
2023-02-25T12:45:22.872Z,46.00
2023-02-25T12:48:04.566Z,45.36
2023-02-25T12:50:31.528Z,46.68
2023-02-25T12:53:14.409Z,46.46
2023-02-25T12:55:59.754Z,46.53
2023-02-25T12:58:36.431Z,45.90
2023-02-25T13:01:32.137Z,45.77
2023-02-25T13:04:14.247Z,45.86
2023-02-25T13:07:07.542Z,46.24
2023-02-25T13:09:46.393Z,45.11
2023-02-25T13:12:32.905Z,47.30
2023-02-25T13:15:09.389Z,46.68
2023-02-25T13:17:50.494Z,46.11
2023-02-25T13:20:37.357Z,44.56
2023-02-25T13:23:21.497Z,44.54
2023-02-25T13:26:00.927Z,43.04
2023-02-25T13:29:14.314Z,42.95
2023-02-25T13:32:00.705Z,43.65
2023-02-25T13:34:38.996Z,43.03
2023-02-25T13:37:39.121Z,42.90
2023-02-25T13:40:26.947Z,43.94
2023-02-25T13:43:09.747Z,46.00
2023-02-25T13:46:02.338Z,45.12
2023-02-25T13:48:51.312Z,45.18
2023-02-25T13:51:58.214Z,44.58
2023-02-25T13:54:47.715Z,43.12
2023-02-25T13:57:39.490Z,43.75
2023-02-25T14:00:44.316Z,43.91
2023-02-25T14:03:49.254Z,43.20
2023-02-25T14:06:47.494Z,44.69
2023-02-25T14:09:51.651Z,44.25
2023-02-25T14:12:44.237Z,44.98
2023-02-25T14:15:29.629Z,46.73
2023-02-25T14:18:34.305Z,45.43
2023-02-25T14:21:16.797Z,45.73
2023-02-25T14:24:01.655Z,46.82
2023-02-25T14:26:38.456Z,45.97
2023-02-25T14:29:28.023Z,46.29
2023-02-25T14:31:58.613Z,46.83
2023-02-25T14:34:28.571Z,45.96
2023-02-25T14:37:20.366Z,46.82
2023-02-25T14:40:00.404Z,48.11
2023-02-25T14:43:06.365Z,47.11
2023-02-25T14:45:37.390Z,46.90
2023-02-25T14:48:26.287Z,46.50
2023-02-25T14:51:04.047Z,45.99
2023-02-25T14:53:53.244Z,45.95
2023-02-25T14:56:54.200Z,49.29
2023-02-25T14:59:29.201Z,50.41
2023-02-25T15:02:14.718Z,49.35
2023-02-25T15:05:08.461Z,48.48
2023-02-25T15:07:41.520Z,47.15
2023-02-25T15:10:13.741Z,47.73
2023-02-25T15:13:00.564Z,48.89
2023-02-25T15:15:55.677Z,48.09
2023-02-25T15:19:00.522Z,47.97
2023-02-25T15:21:39.863Z,47.68
2023-02-25T15:24:12.118Z,48.67
2023-02-25T15:26:46.704Z,47.79
2023-02-25T15:29:32.514Z,48.33
2023-02-25T15:32:25.320Z,47.61
2023-02-25T15:35:00.409Z,47.23
2023-02-25T15:37:55.590Z,45.85
2023-02-25T15:40:24.374Z,45.66
2023-02-25T15:42:55.778Z,46.82
2023-02-25T15:45:29.050Z,47.15
2023-02-25T15:48:08.228Z,61.33
2023-02-25T15:50:44.737Z,66.79
2023-02-25T15:53:21.325Z,69.54
2023-02-25T15:55:52.140Z,69.75
2023-02-25T15:58:25.334Z,69.91
2023-02-25T16:01:05.811Z,71.44
2023-02-25T16:03:35.433Z,69.87
2023-02-25T16:06:08.480Z,69.68
2023-02-25T16:09:05.396Z,69.10
2023-02-25T16:11:43.117Z,70.18
2023-02-25T16:14:26.290Z,73.72
2023-02-25T16:16:57.555Z,75.76
2023-02-25T16:19:26.802Z,75.97
2023-02-25T16:22:00.915Z,74.70
2023-02-25T16:24:28.180Z,74.23
2023-02-25T16:27:06.436Z,72.70
2023-02-25T16:29:51.761Z,74.96
2023-02-25T16:32:54.675Z,68.00
2023-02-25T16:35:43.210Z,64.93
2023-02-25T16:38:29.241Z,65.05
2023-02-25T16:40:56.616Z,63.77
2023-02-25T16:43:29.222Z,60.42
2023-02-25T16:46:01.583Z,62.21
2023-02-25T16:48:37.264Z,64.13
2023-02-25T16:51:11.954Z,61.46
2023-02-25T16:53:44.071Z,60.30
2023-02-25T16:56:19.972Z,59.16
2023-02-25T16:59:13.344Z,58.22
2023-02-25T17:01:46.214Z,55.97
2023-02-25T17:04:20.133Z,56.20
2023-02-25T17:07:20.233Z,55.81
2023-02-25T17:09:52.255Z,56.31
2023-02-25T17:12:28.324Z,55.97
2023-02-25T17:14:55.400Z,55.63
2023-02-25T17:17:33.673Z,57.07
2023-02-25T17:20:01.710Z,55.42
2023-02-25T17:22:28.744Z,53.94
2023-02-25T17:24:56.155Z,52.63
2023-02-25T17:27:23.203Z,52.99
2023-02-25T17:29:50.296Z,53.52
2023-02-25T17:32:25.321Z,53.55
2023-02-25T17:34:53.755Z,52.85
2023-02-25T17:37:20.794Z,53.74
2023-02-25T17:39:48.144Z,52.78
2023-02-25T17:42:39.782Z,53.06
2023-02-25T17:45:27.618Z,52.72
2023-02-25T17:47:54.665Z,52.57
2023-02-25T17:50:30.235Z,53.65
2023-02-25T17:52:58.495Z,53.10
2023-02-25T17:55:29.152Z,52.33
2023-02-25T17:57:58.272Z,52.23
2023-02-25T18:00:31.997Z,52.32
2023-02-25T18:03:18.948Z,52.52
2023-02-25T18:05:59.076Z,54.14
2023-02-25T18:08:52.781Z,54.94
2023-02-25T18:11:27.380Z,54.55
2023-02-25T18:13:54.391Z,54.38
2023-02-25T18:16:24.678Z,53.96
2023-02-25T18:18:52.187Z,53.92
2023-02-25T18:21:19.372Z,54.05
2023-02-25T18:23:47.169Z,53.75
2023-02-25T18:26:24.913Z,53.76
2023-02-25T18:28:53.234Z,53.39
2023-02-25T18:31:20.550Z,53.54
2023-02-25T18:33:47.763Z,53.46
2023-02-25T18:36:23.898Z,53.71
2023-02-25T18:38:51.376Z,54.38
2023-02-25T18:41:18.608Z,54.19
2023-02-25T18:43:45.802Z,54.18
2023-02-25T18:46:13.421Z,55.63
2023-02-25T18:48:40.579Z,55.55
2023-02-25T18:51:13.756Z,56.70
2023-02-25T18:53:40.988Z,56.67
2023-02-25T18:56:08.858Z,57.25
2023-02-25T18:58:36.127Z,57.73
2023-02-25T19:01:03.545Z,57.16
2023-02-25T19:03:32.144Z,57.23
2023-02-25T19:05:59.573Z,57.19
2023-02-25T19:08:26.676Z,56.59
2023-02-25T19:10:55.525Z,55.90
2023-02-25T19:13:31.606Z,55.34
2023-02-25T19:15:58.621Z,55.79
2023-02-25T19:18:25.760Z,55.71
2023-02-25T19:20:53.214Z,55.76
2023-02-25T19:23:21.138Z,55.36
2023-02-25T19:25:50.690Z,54.64
2023-02-25T19:28:17.702Z,54.00
2023-02-25T19:30:45.147Z,53.95
2023-02-25T19:33:12.532Z,58.10
2023-02-25T19:35:41.238Z,57.31
2023-02-25T19:38:09.318Z,57.43
2023-02-25T19:40:36.901Z,57.48
2023-02-25T19:43:04.988Z,58.11
2023-02-25T19:45:32.216Z,56.61
2023-02-25T19:47:59.952Z,56.61
2023-02-25T19:50:27.143Z,58.53
2023-02-25T19:52:54.333Z,57.23
2023-02-25T19:55:21.297Z,55.79
2023-02-25T19:57:48.719Z,54.69
2023-02-25T20:00:20.046Z,56.27
2023-02-25T20:02:47.031Z,55.80
2023-02-25T20:05:15.217Z,55.33
2023-02-25T20:07:42.365Z,55.88
2023-02-25T20:10:11.571Z,56.52
2023-02-25T20:12:43.336Z,55.29
2023-02-25T20:15:11.169Z,55.33
2023-02-25T20:17:39.121Z,56.94
2023-02-25T20:20:08.620Z,59.95
2023-02-25T20:22:36.414Z,58.61
2023-02-25T20:25:03.995Z,58.60
2023-02-25T20:27:31.574Z,59.18
2023-02-25T20:29:58.952Z,60.80
2023-02-25T20:32:26.091Z,60.08
2023-02-25T20:34:53.387Z,61.72
2023-02-25T20:37:22.426Z,60.27
2023-02-25T20:39:54.000Z,59.10
2023-02-25T20:42:23.628Z,64.50
2023-02-25T20:44:51.840Z,71.13
2023-02-25T20:47:26.242Z,72.20
2023-02-25T20:49:54.570Z,71.49
2023-02-25T20:52:22.141Z,70.28
2023-02-25T20:54:49.991Z,71.66
2023-02-25T20:57:19.932Z,71.49
2023-02-25T20:59:48.260Z,72.42
2023-02-25T21:02:15.657Z,71.21
2023-02-25T21:04:43.876Z,69.98
2023-02-25T21:07:10.906Z,70.29
2023-02-25T21:09:38.237Z,68.72
2023-02-25T21:12:06.438Z,67.71
2023-02-25T21:14:33.489Z,69.41
2023-02-25T21:17:00.935Z,69.47
2023-02-25T21:19:30.703Z,69.96
2023-02-25T21:21:57.841Z,67.98
2023-02-25T21:24:27.423Z,67.66
2023-02-25T21:26:54.424Z,65.21
2023-02-25T21:29:21.465Z,66.16
2023-02-25T21:31:49.090Z,65.26
2023-02-25T21:34:16.112Z,65.30
2023-02-25T21:36:43.507Z,62.69
2023-02-25T21:39:11.932Z,63.40
2023-02-25T21:41:44.254Z,62.97
2023-02-25T21:44:13.314Z,61.08
2023-02-25T21:46:41.531Z,60.03
2023-02-25T21:49:10.652Z,62.97
2023-02-25T21:51:40.544Z,64.26
2023-02-25T21:54:07.875Z,62.26
2023-02-25T21:56:35.320Z,59.90
2023-02-25T21:59:03.470Z,58.27
2023-02-25T22:01:35.304Z,58.03
2023-02-25T22:04:02.405Z,55.86
2023-02-25T22:06:29.802Z,55.60
2023-02-25T22:08:56.932Z,54.81
2023-02-25T22:11:28.927Z,54.56
2023-02-25T22:13:58.319Z,54.25
2023-02-25T22:16:27.066Z,53.96
2023-02-25T22:18:55.051Z,53.49
2023-02-25T22:21:23.928Z,55.11
2023-02-25T22:23:51.629Z,59.33
2023-02-25T22:26:20.305Z,59.83
2023-02-25T22:28:47.346Z,61.06
2023-02-25T22:31:16.169Z,63.08
2023-02-25T22:33:44.211Z,59.93
2023-02-25T22:36:11.787Z,58.05
2023-02-25T22:38:44.234Z,60.86
2023-02-25T22:41:25.268Z,63.08
2023-02-25T22:43:52.446Z,61.65
2023-02-25T22:46:26.672Z,60.30
2023-02-25T22:48:54.563Z,62.14
2023-02-25T22:51:32.795Z,59.79
2023-02-25T22:53:59.994Z,56.87
2023-02-25T22:56:27.411Z,56.49
2023-02-25T22:58:54.628Z,57.29
2023-02-25T23:01:22.914Z,59.48
2023-02-25T23:03:50.583Z,59.39
2023-02-25T23:06:18.561Z,58.64
2023-02-25T23:08:46.873Z,58.29
2023-02-25T23:11:16.126Z,58.97
2023-02-25T23:13:46.862Z,59.61
2023-02-25T23:16:14.406Z,61.47
2023-02-25T23:18:42.258Z,58.76
2023-02-25T23:21:15.742Z,63.87
2023-02-25T23:23:45.999Z,63.41
2023-02-25T23:26:13.699Z,62.35
2023-02-25T23:28:41.106Z,64.90
2023-02-25T23:31:09.132Z,62.60
2023-02-25T23:33:37.216Z,60.35
2023-02-25T23:36:05.087Z,60.97
2023-02-25T23:38:32.051Z,60.89
2023-02-25T23:40:59.827Z,61.41
2023-02-25T23:43:26.959Z,61.72
2023-02-25T23:45:54.338Z,62.64
2023-02-25T23:48:21.711Z,59.91
2023-02-25T23:50:49.207Z,62.54
2023-02-25T23:53:17.704Z,62.33
2023-02-25T23:55:44.842Z,60.45
2023-02-25T23:58:11.931Z,61.30
